createdAt,value
2018-09-17T00:01:37.601Z,86.64
2018-09-17T00:04:06.676Z,86.65
2018-09-17T00:06:35.449Z,86.84
2018-09-17T00:09:04.317Z,87.34
2018-09-17T00:11:33.388Z,87.19
2018-09-17T00:14:02.654Z,87.48
2018-09-17T00:16:32.027Z,87.34
2018-09-17T00:19:01.030Z,87.65
2018-09-17T00:21:30.060Z,87.38
2018-09-17T00:23:59.166Z,87.61
2018-09-17T00:26:27.901Z,87.71
2018-09-17T00:28:56.681Z,87.74
2018-09-17T00:31:25.443Z,87.77
2018-09-17T00:33:54.482Z,88.22
2018-09-17T00:36:23.588Z,87.96
2018-09-17T00:38:52.442Z,88.01
2018-09-17T00:41:21.226Z,87.80
2018-09-17T00:43:50.764Z,87.69
2018-09-17T00:46:19.526Z,87.98
2018-09-17T00:48:48.825Z,88.32
2018-09-17T00:51:18.283Z,88.31
2018-09-17T00:53:47.104Z,88.61
2018-09-17T00:56:15.860Z,88.41
2018-09-17T00:58:45.233Z,88.28
2018-09-17T01:01:14.035Z,88.67
2018-09-17T01:03:43.294Z,89.02
2018-09-17T01:06:12.039Z,89.12
2018-09-17T01:08:40.765Z,89.24
2018-09-17T01:11:09.635Z,89.39
2018-09-17T01:13:38.699Z,89.35
2018-09-17T01:16:08.058Z,89.45
2018-09-17T01:18:36.775Z,89.86
2018-09-17T01:21:05.988Z,89.68
2018-09-17T01:23:34.990Z,89.52
2018-09-17T01:26:03.742Z,89.88
2018-09-17T01:28:32.514Z,90.38
2018-09-17T01:31:01.291Z,89.96
2018-09-17T01:33:30.010Z,90.47
2018-09-17T01:35:59.033Z,90.27
2018-09-17T01:38:29.175Z,90.20
2018-09-17T01:40:58.821Z,90.24
2018-09-17T01:43:27.914Z,90.26
2018-09-17T01:45:57.255Z,90.24
2018-09-17T01:48:26.497Z,90.84
2018-09-17T01:50:55.775Z,90.58
2018-09-17T01:53:25.140Z,89.97
2018-09-17T01:55:54.697Z,90.27
2018-09-17T01:58:23.503Z,90.64
2018-09-17T02:00:52.509Z,90.77
2018-09-17T02:03:21.242Z,90.93
2018-09-17T02:05:49.951Z,90.96
2018-09-17T02:08:18.673Z,91.42
2018-09-17T02:10:47.443Z,91.19
2018-09-17T02:13:16.411Z,91.53
2018-09-17T02:15:45.114Z,91.75
2018-09-17T02:18:13.868Z,91.75
2018-09-17T02:20:43.329Z,91.71
2018-09-17T02:23:18.616Z,91.54
2018-09-17T02:25:47.909Z,91.50
2018-09-17T02:28:17.175Z,91.39
2018-09-17T02:30:45.920Z,91.74
2018-09-17T02:33:15.296Z,91.71
2018-09-17T02:35:44.821Z,91.97
2018-09-17T02:38:14.523Z,91.95
2018-09-17T02:40:43.574Z,92.29
2018-09-17T02:43:12.652Z,92.49
2018-09-17T02:45:41.383Z,92.50
2018-09-17T02:48:10.455Z,92.50
2018-09-17T02:50:39.762Z,92.65
2018-09-17T02:53:08.525Z,92.95
2018-09-17T02:55:37.819Z,93.06
2018-09-17T02:58:07.208Z,92.96
2018-09-17T03:00:36.258Z,92.86
2018-09-17T03:03:05.027Z,93.08
2018-09-17T03:05:33.803Z,93.12
2018-09-17T03:08:02.810Z,93.08
2018-09-17T03:10:32.070Z,93.39
2018-09-17T03:13:01.055Z,93.47
2018-09-17T03:15:40.828Z,93.55
2018-09-17T03:18:10.247Z,93.54
2018-09-17T03:20:39.050Z,93.57
2018-09-17T03:23:07.758Z,93.74
2018-09-17T03:25:36.850Z,93.59
2018-09-17T03:28:05.986Z,94.71
2018-09-17T03:30:34.712Z,95.18
2018-09-17T03:33:04.224Z,95.20
2018-09-17T03:35:33.011Z,95.17
2018-09-17T03:38:15.822Z,95.19
2018-09-17T03:40:45.007Z,94.98
2018-09-17T03:43:14.034Z,95.03
2018-09-17T03:45:42.807Z,94.85
2018-09-17T03:48:11.975Z,94.85
2018-09-17T03:50:40.993Z,94.76
2018-09-17T03:53:10.055Z,94.98
2018-09-17T03:55:39.231Z,94.91
2018-09-17T03:58:08.045Z,94.91
2018-09-17T04:00:37.227Z,95.20
2018-09-17T04:03:06.396Z,95.14
2018-09-17T04:05:35.611Z,95.25
2018-09-17T04:08:04.914Z,95.12
2018-09-17T04:10:33.731Z,95.62
2018-09-17T04:13:02.479Z,95.42
2018-09-17T04:15:31.208Z,95.35
2018-09-17T04:18:00.857Z,95.45
2018-09-17T04:20:29.888Z,95.20
2018-09-17T04:22:58.813Z,95.11
2018-09-17T04:25:27.972Z,95.33
2018-09-17T04:27:57.256Z,95.45
2018-09-17T04:30:25.970Z,95.64
2018-09-17T04:32:55.062Z,95.63
2018-09-17T04:35:23.789Z,95.50
2018-09-17T04:37:52.578Z,95.60
2018-09-17T04:40:21.683Z,95.92
2018-09-17T04:42:50.731Z,95.95
2018-09-17T04:45:19.785Z,95.93
2018-09-17T04:47:48.519Z,95.93
2018-09-17T04:50:17.523Z,95.98
2018-09-17T04:52:46.299Z,96.04
2018-09-17T04:55:15.019Z,95.93
2018-09-17T04:57:44.436Z,96.36
2018-09-17T05:00:13.246Z,97.21
2018-09-17T05:02:42.078Z,98.28
2018-09-17T05:05:11.447Z,98.21
2018-09-17T05:07:40.182Z,98.26
2018-09-17T05:10:08.961Z,98.51
2018-09-17T05:12:38.085Z,98.15
2018-09-17T05:15:07.350Z,98.43
2018-09-17T05:17:36.441Z,98.49
2018-09-17T05:20:05.648Z,98.73
2018-09-17T05:22:34.362Z,99.08
2018-09-17T05:25:03.093Z,99.19
2018-09-17T05:27:32.376Z,99.45
2018-09-17T05:30:01.102Z,99.24
2018-09-17T05:32:30.221Z,99.05
2018-09-17T05:34:58.985Z,99.27
2018-09-17T05:37:28.619Z,99.08
2018-09-17T05:39:57.675Z,98.86
2018-09-17T05:42:26.726Z,98.80
2018-09-17T05:44:56.150Z,99.04
2018-09-17T05:47:25.090Z,99.18
2018-09-17T05:49:53.839Z,99.21
2018-09-17T05:52:22.919Z,99.16
2018-09-17T05:54:51.833Z,98.95
2018-09-17T05:57:20.728Z,99.26
2018-09-17T05:59:49.466Z,99.32
2018-09-17T06:02:18.580Z,99.40
2018-09-17T06:04:47.368Z,99.28
2018-09-17T06:07:16.203Z,99.13
2018-09-17T06:09:45.063Z,99.49
2018-09-17T06:12:14.172Z,99.75
2018-09-17T06:14:43.335Z,99.95
2018-09-17T06:17:13.330Z,100.00
2018-09-17T06:19:42.333Z,100.00
2018-09-17T06:22:11.341Z,100.00
2018-09-17T06:24:40.720Z,100.00
2018-09-17T06:27:09.526Z,100.00
2018-09-17T06:29:38.718Z,100.00
2018-09-17T06:32:07.454Z,100.00
2018-09-17T06:34:36.791Z,100.00
2018-09-17T06:37:06.155Z,100.00
2018-09-17T06:39:34.880Z,100.00
2018-09-17T06:42:03.988Z,100.00
2018-09-17T06:44:32.814Z,100.00
2018-09-17T06:47:01.944Z,100.00
2018-09-17T06:49:31.025Z,100.00
2018-09-17T06:52:00.159Z,100.00
2018-09-17T06:54:29.257Z,100.00
2018-09-17T06:56:58.575Z,99.84
2018-09-17T06:59:27.614Z,99.74
2018-09-17T07:01:56.495Z,99.19
2018-09-17T07:04:25.539Z,98.79
2018-09-17T07:06:54.825Z,99.01
2018-09-17T07:09:23.630Z,97.98
2018-09-17T07:11:52.510Z,97.74
2018-09-17T07:14:21.529Z,95.42
2018-09-17T07:16:50.691Z,95.33
2018-09-17T07:19:19.703Z,94.51
2018-09-17T07:21:48.775Z,93.79
2018-09-17T07:24:17.831Z,93.27
2018-09-17T07:26:46.539Z,93.50
2018-09-17T07:29:15.307Z,93.57
2018-09-17T07:31:50.247Z,92.93
2018-09-17T07:34:19.417Z,91.74
2018-09-17T07:36:48.689Z,91.59
2018-09-17T07:39:17.509Z,91.30
2018-09-17T07:41:46.482Z,90.67
2018-09-17T07:44:15.246Z,91.12
2018-09-17T07:46:44.005Z,90.78
2018-09-17T07:49:13.001Z,90.52
2018-09-17T07:51:41.834Z,89.68
2018-09-17T07:54:10.995Z,89.48
2018-09-17T07:56:39.801Z,88.53
2018-09-17T07:59:08.542Z,88.73
2018-09-17T08:01:37.950Z,86.23
2018-09-17T08:04:06.950Z,84.19
2018-09-17T08:06:35.830Z,84.23
2018-09-17T08:09:07.310Z,83.46
2018-09-17T08:11:36.501Z,81.44
2018-09-17T08:14:05.300Z,80.79
2018-09-17T08:16:34.327Z,80.56
2018-09-17T08:19:03.194Z,79.92
2018-09-17T08:21:31.920Z,79.41
2018-09-17T08:24:01.668Z,79.49
2018-09-17T08:26:31.376Z,78.82
2018-09-17T08:29:00.134Z,78.28
2018-09-17T08:31:28.945Z,78.14
2018-09-17T08:33:57.770Z,77.39
2018-09-17T08:36:26.517Z,75.75
2018-09-17T08:38:55.313Z,76.29
2018-09-17T08:41:24.693Z,75.38
2018-09-17T08:43:54.123Z,74.81
2018-09-17T08:46:23.121Z,74.72
2018-09-17T08:48:52.154Z,74.22
2018-09-17T08:51:20.899Z,73.32
2018-09-17T08:53:49.711Z,73.99
2018-09-17T08:56:26.582Z,73.29
2018-09-17T08:58:59.838Z,73.62
2018-09-17T09:02:33.572Z,71.87
2018-09-17T09:05:07.382Z,71.47
2018-09-17T09:07:37.149Z,71.27
2018-09-17T09:10:12.103Z,70.87
2018-09-17T09:12:41.956Z,70.06
2018-09-17T09:15:16.161Z,69.30
2018-09-17T09:17:45.162Z,69.20
2018-09-17T09:20:14.192Z,68.98
2018-09-17T09:22:43.206Z,68.43
2018-09-17T09:25:12.386Z,68.43
2018-09-17T09:27:42.124Z,67.24
2018-09-17T09:30:10.856Z,67.03
2018-09-17T09:32:40.347Z,65.97
2018-09-17T09:35:09.349Z,65.58
2018-09-17T09:37:38.628Z,64.34
2018-09-17T09:40:07.409Z,64.60
2018-09-17T09:42:36.594Z,64.30
2018-09-17T09:45:05.415Z,65.68
2018-09-17T09:47:34.543Z,64.15
2018-09-17T09:50:03.575Z,63.63
2018-09-17T09:52:33.376Z,64.05
2018-09-17T09:55:02.445Z,63.95
2018-09-17T09:57:31.600Z,62.67
2018-09-17T10:00:00.754Z,61.93
2018-09-17T10:02:31.523Z,60.36
2018-09-17T10:05:00.864Z,60.79
2018-09-17T10:07:29.974Z,58.83
2018-09-17T10:11:05.422Z,60.11
2018-09-17T10:13:39.571Z,58.90
2018-09-17T10:16:13.846Z,59.01
2018-09-17T10:18:48.012Z,56.36
2018-09-17T10:21:17.041Z,57.05
2018-09-17T10:23:46.942Z,55.57
2018-09-17T10:26:16.516Z,54.78
2018-09-17T10:28:45.832Z,54.75
2018-09-17T10:31:14.710Z,55.97
2018-09-17T10:33:43.517Z,53.85
2018-09-17T10:36:12.588Z,52.06
2018-09-17T10:38:42.335Z,51.88
2018-09-17T10:41:11.343Z,50.54
2018-09-17T10:43:40.128Z,50.10
2018-09-17T10:46:09.218Z,51.15
2018-09-17T10:48:38.006Z,50.07
2018-09-17T10:51:06.887Z,48.42
2018-09-17T10:53:35.908Z,48.81
2018-09-17T10:56:05.203Z,47.95
2018-09-17T10:58:34.549Z,45.90
2018-09-17T11:01:03.525Z,44.91
2018-09-17T11:03:32.886Z,46.13
2018-09-17T11:06:02.202Z,46.09
2018-09-17T11:08:31.556Z,45.58
2018-09-17T11:11:00.565Z,44.90
2018-09-17T11:13:29.553Z,45.50
2018-09-17T11:15:58.902Z,46.19
2018-09-17T11:18:28.054Z,44.73
2018-09-17T11:20:56.991Z,44.48
2018-09-17T11:23:26.022Z,43.91
2018-09-17T11:25:55.218Z,43.97
2018-09-17T11:28:24.323Z,42.15
2018-09-17T11:30:53.448Z,42.03
2018-09-17T11:33:22.190Z,41.23
2018-09-17T11:35:51.669Z,41.37
2018-09-17T11:38:23.486Z,41.66
2018-09-17T11:40:53.048Z,41.90
2018-09-17T11:43:21.901Z,41.34
2018-09-17T11:45:50.969Z,41.44
2018-09-17T11:48:19.857Z,42.34
2018-09-17T11:50:48.946Z,41.56
2018-09-17T11:53:18.893Z,40.55
2018-09-17T11:55:48.293Z,40.64
2018-09-17T11:58:17.340Z,40.07
2018-09-17T12:00:51.287Z,39.60
2018-09-17T12:03:25.144Z,39.78
2018-09-17T12:06:04.385Z,39.90
2018-09-17T12:08:33.750Z,39.65
2018-09-17T12:11:02.553Z,39.23
2018-09-17T12:13:31.585Z,38.18
2018-09-17T12:16:00.377Z,38.57
2018-09-17T12:18:29.628Z,37.91
2018-09-17T12:20:59.009Z,38.23
2018-09-17T12:23:28.386Z,38.27
2018-09-17T12:25:57.441Z,38.03
2018-09-17T12:28:26.226Z,37.05
2018-09-17T12:37:55.996Z,37.69
2018-09-17T12:40:25.951Z,37.37
2018-09-17T12:42:54.825Z,37.17
2018-09-17T12:45:24.436Z,37.70
2018-09-17T12:47:54.018Z,36.15
2018-09-17T12:50:23.140Z,36.10
2018-09-17T12:52:52.208Z,35.85
2018-09-17T12:55:21.007Z,35.79
2018-09-17T12:57:49.758Z,35.15
2018-09-17T13:00:18.770Z,34.43
2018-09-17T13:02:47.761Z,34.95
2018-09-17T13:05:16.618Z,34.94
2018-09-17T13:07:45.738Z,34.05
2018-09-17T13:10:14.827Z,33.97
2018-09-17T13:12:43.928Z,35.38
2018-09-17T13:15:12.739Z,34.42
2018-09-17T13:17:42.111Z,34.11
2018-09-17T13:20:11.119Z,32.76
2018-09-17T13:22:40.270Z,33.16
2018-09-17T13:25:09.294Z,33.18
2018-09-17T13:27:38.088Z,32.73
2018-09-17T13:30:07.274Z,33.26
2018-09-17T13:32:36.653Z,32.68
2018-09-17T13:35:05.781Z,32.13
2018-09-17T13:37:34.951Z,31.21
2018-09-17T13:40:03.751Z,31.46
2018-09-17T13:42:32.601Z,31.00
2018-09-17T13:45:01.396Z,31.52
2018-09-17T13:47:30.395Z,31.26
2018-09-17T13:49:59.609Z,30.68
2018-09-17T13:52:28.942Z,31.33
2018-09-17T13:54:57.703Z,31.66
2018-09-17T13:57:26.522Z,31.12
2018-09-17T13:59:55.357Z,30.84
2018-09-17T14:02:24.114Z,31.74
2018-09-17T14:04:53.166Z,31.57
2018-09-17T14:07:22.217Z,30.00
2018-09-17T14:09:51.003Z,30.45
2018-09-17T14:12:19.719Z,30.36
2018-09-17T14:14:48.710Z,31.07
2018-09-17T14:17:17.484Z,30.71
2018-09-17T14:19:46.871Z,29.79
2018-09-17T14:22:15.943Z,30.05
2018-09-17T14:24:44.683Z,29.86
2018-09-17T14:27:14.205Z,30.62
2018-09-17T14:29:43.277Z,30.98
2018-09-17T14:32:17.250Z,30.23
2018-09-17T14:34:46.408Z,30.44
2018-09-17T14:37:16.068Z,30.16
2018-09-17T14:39:44.906Z,29.36
2018-09-17T14:42:14.024Z,29.99
2018-09-17T14:44:43.136Z,29.97
2018-09-17T14:47:12.225Z,29.92
2018-09-17T14:49:41.453Z,30.99
2018-09-17T14:52:10.576Z,30.39
2018-09-17T14:54:39.469Z,30.63
2018-09-17T14:57:08.140Z,30.71
2018-09-17T14:59:37.420Z,31.93
2018-09-17T15:02:06.505Z,30.55
2018-09-17T15:04:35.357Z,30.84
2018-09-17T15:07:04.126Z,31.01
2018-09-17T15:09:32.884Z,30.51
2018-09-17T15:12:02.513Z,30.60
2018-09-17T15:14:31.344Z,29.71
2018-09-17T15:17:00.501Z,30.90
2018-09-17T15:19:29.279Z,31.05
2018-09-17T15:21:58.092Z,30.96
2018-09-17T15:24:26.965Z,29.81
2018-09-17T15:26:55.716Z,30.75
2018-09-17T15:29:24.748Z,29.76
2018-09-17T15:31:53.489Z,30.40
2018-09-17T15:34:22.298Z,30.80
2018-09-17T15:36:51.332Z,31.24
2018-09-17T15:39:21.187Z,31.79
2018-09-17T15:41:50.276Z,31.24
2018-09-17T15:44:19.104Z,31.90
2018-09-17T15:46:48.102Z,32.72
2018-09-17T15:49:17.113Z,32.81
2018-09-17T15:51:45.995Z,32.50
2018-09-17T15:54:15.090Z,32.75
2018-09-17T15:56:44.080Z,33.07
2018-09-17T15:59:12.984Z,33.79
2018-09-17T16:01:42.200Z,34.46
2018-09-17T16:04:11.231Z,33.93
2018-09-17T16:06:40.809Z,34.16
2018-09-17T16:09:09.522Z,33.84
2018-09-17T16:11:38.576Z,34.55
2018-09-17T16:14:08.561Z,34.57
2018-09-17T16:16:37.264Z,35.03
2018-09-17T16:19:06.145Z,35.63
2018-09-17T16:21:35.217Z,35.36
2018-09-17T16:24:04.647Z,36.35
2018-09-17T16:26:33.682Z,36.39
2018-09-17T16:29:02.420Z,36.33
2018-09-17T16:31:31.473Z,36.17
2018-09-17T16:34:00.213Z,36.91
2018-09-17T16:36:29.623Z,37.13
2018-09-17T16:38:58.926Z,38.04
2018-09-17T16:41:27.711Z,38.10
2018-09-17T16:43:56.458Z,39.21
2018-09-17T16:46:25.578Z,38.99
2018-09-17T16:48:54.664Z,39.71
2018-09-17T16:51:23.396Z,38.91
2018-09-17T16:53:52.343Z,39.27
2018-09-17T16:56:21.526Z,39.48
2018-09-17T16:58:50.590Z,40.42
2018-09-17T17:01:19.302Z,40.17
2018-09-17T17:03:48.610Z,41.29
2018-09-17T17:06:18.277Z,41.94
2018-09-17T17:08:49.321Z,41.27
2018-09-17T17:11:23.274Z,40.81
2018-09-17T17:13:53.775Z,41.04
2018-09-17T17:16:28.510Z,41.45
2018-09-17T17:19:04.849Z,42.43
2018-09-17T17:21:34.191Z,42.41
2018-09-17T17:24:05.157Z,42.51
2018-09-17T17:26:34.793Z,43.14
2018-09-17T17:29:03.818Z,43.16
2018-09-17T17:31:32.617Z,43.18
2018-09-17T17:34:02.380Z,43.56
2018-09-17T17:36:31.090Z,44.22
2018-09-17T17:39:00.207Z,44.62
2018-09-17T17:41:29.305Z,44.24
2018-09-17T17:43:59.245Z,44.65
2018-09-17T17:46:28.267Z,45.12
2018-09-17T17:48:57.036Z,45.01
2018-09-17T17:51:26.827Z,45.18
2018-09-17T17:53:56.938Z,45.30
2018-09-17T17:56:28.963Z,45.21
2018-09-17T17:58:57.686Z,45.44
2018-09-17T18:01:28.213Z,46.41
2018-09-17T18:03:57.472Z,46.73
2018-09-17T18:06:26.230Z,47.31
2018-09-17T18:08:55.078Z,46.98
2018-09-17T18:11:24.017Z,48.11
2018-09-17T18:13:53.443Z,48.20
2018-09-17T18:16:26.251Z,48.33
2018-09-17T18:18:55.503Z,48.41
2018-09-17T18:21:24.254Z,48.76
2018-09-17T18:23:53.661Z,49.17
2018-09-17T18:26:22.408Z,49.26
2018-09-17T18:28:51.758Z,49.86
2018-09-17T18:31:20.487Z,49.85
2018-09-17T18:33:49.269Z,50.06
2018-09-17T18:36:18.392Z,50.31
2018-09-17T18:38:47.493Z,50.87
2018-09-17T18:41:16.252Z,51.21
2018-09-17T18:43:45.418Z,51.06
2018-09-17T18:46:14.471Z,51.62
2018-09-17T18:48:43.329Z,51.21
2018-09-17T18:51:12.684Z,51.57
2018-09-17T18:53:41.765Z,52.55
2018-09-17T18:56:10.844Z,52.91
2018-09-17T18:58:39.586Z,53.00
2018-09-17T19:01:08.554Z,53.10
2018-09-17T19:03:37.705Z,53.63
2018-09-17T19:06:06.789Z,53.67
2018-09-17T19:08:35.572Z,54.03
2018-09-17T19:11:04.654Z,54.27
2018-09-17T19:13:34.181Z,54.69
2018-09-17T19:16:02.942Z,55.70
2018-09-17T19:18:31.689Z,55.92
2018-09-17T19:21:00.940Z,55.79
2018-09-17T19:23:35.189Z,56.45
2018-09-17T19:26:04.061Z,56.71
2018-09-17T19:28:37.978Z,57.37
2018-09-17T19:31:07.302Z,57.28
2018-09-17T19:33:36.292Z,57.38
2018-09-17T19:36:05.308Z,58.11
2018-09-17T19:38:39.305Z,57.78
2018-09-17T19:41:08.657Z,58.56
2018-09-17T19:43:37.880Z,58.75
2018-09-17T19:46:11.924Z,59.03
2018-09-17T19:48:40.774Z,59.85
2018-09-17T19:52:13.506Z,59.94
2018-09-17T19:54:42.705Z,60.60
2018-09-17T19:57:16.567Z,60.76
2018-09-17T19:59:56.491Z,60.73
2018-09-17T20:02:25.630Z,61.02
2018-09-17T20:04:59.822Z,61.90
2018-09-17T20:07:29.104Z,61.60
2018-09-17T20:09:58.602Z,61.83
2018-09-17T20:12:27.751Z,62.58
2018-09-17T20:14:56.507Z,62.36
2018-09-17T20:17:25.954Z,62.99
2018-09-17T20:19:54.715Z,63.42
2018-09-17T20:22:23.547Z,62.97
2018-09-17T20:24:52.350Z,63.34
2018-09-17T20:27:21.075Z,63.35
2018-09-17T20:29:50.211Z,64.21
2018-09-17T20:32:19.211Z,63.86
2018-09-17T20:34:48.064Z,64.28
2018-09-17T20:37:16.924Z,64.66
2018-09-17T20:39:45.693Z,64.52
2018-09-17T20:42:14.516Z,64.80
2018-09-17T20:44:43.426Z,65.33
2018-09-17T20:47:12.385Z,64.84
2018-09-17T20:49:41.934Z,65.38
2018-09-17T20:52:11.314Z,65.46
2018-09-17T20:54:40.139Z,65.82
2018-09-17T20:57:09.206Z,65.78
2018-09-17T20:59:37.916Z,66.27
2018-09-17T21:02:06.706Z,66.47
2018-09-17T21:04:35.443Z,66.46
2018-09-17T21:07:04.470Z,67.23
2018-09-17T21:09:33.801Z,66.94
2018-09-17T21:12:03.141Z,67.80
2018-09-17T21:14:32.172Z,67.24
2018-09-17T21:17:02.604Z,67.82
2018-09-17T21:19:33.152Z,68.41
2018-09-17T21:22:04.284Z,68.39
2018-09-17T21:24:35.525Z,68.55
2018-09-17T21:27:06.660Z,68.76
2018-09-17T21:29:37.904Z,68.59
2018-09-17T21:32:08.660Z,68.93
2018-09-17T21:34:39.590Z,68.59
2018-09-17T21:37:10.725Z,68.67
2018-09-17T21:39:41.349Z,69.00
2018-09-17T21:42:11.337Z,68.89
2018-09-17T21:44:41.602Z,68.97
2018-09-17T21:47:11.737Z,69.10
2018-09-17T21:49:40.807Z,69.35
2018-09-17T21:52:10.086Z,69.18
2018-09-17T21:54:39.378Z,69.67
2018-09-17T21:57:08.164Z,69.50
2018-09-17T21:59:37.492Z,69.72
2018-09-17T22:02:06.540Z,69.91
2018-09-17T22:04:35.952Z,70.14
2018-09-17T22:07:04.743Z,70.51
2018-09-17T22:09:33.468Z,69.84
2018-09-17T22:12:02.433Z,70.05
2018-09-17T22:14:31.520Z,70.12
2018-09-17T22:17:00.240Z,70.71
2018-09-17T22:19:29.222Z,70.93
2018-09-17T22:21:58.266Z,71.09
2018-09-17T22:24:27.294Z,71.17
2018-09-17T22:26:56.304Z,70.93
2018-09-17T22:29:25.106Z,71.09
2018-09-17T22:31:54.419Z,70.24
2018-09-17T22:34:23.410Z,70.29
2018-09-17T22:36:52.162Z,69.99
2018-09-17T22:39:21.553Z,70.57
2018-09-17T22:41:50.689Z,69.52
2018-09-17T22:44:19.697Z,69.27
2018-09-17T22:46:48.518Z,69.16
2018-09-17T22:49:17.239Z,68.60
2018-09-17T22:51:46.253Z,68.88
2018-09-17T22:54:15.271Z,68.72
2018-09-17T22:56:43.999Z,68.92
2018-09-17T22:59:13.055Z,68.38
2018-09-17T23:01:41.792Z,68.42
2018-09-17T23:04:10.759Z,68.46
2018-09-17T23:06:39.825Z,68.91
2018-09-17T23:09:11.136Z,68.77
2018-09-17T23:11:40.122Z,68.66
2018-09-17T23:14:08.885Z,68.40
2018-09-17T23:16:38.190Z,68.95
2018-09-17T23:19:07.646Z,69.36
2018-09-17T23:21:37.235Z,69.64
2018-09-17T23:24:06.888Z,69.78
2018-09-17T23:26:36.393Z,70.19
2018-09-17T23:29:05.140Z,70.56
2018-09-17T23:31:33.840Z,70.06
2018-09-17T23:34:02.630Z,70.27
2018-09-17T23:36:31.688Z,69.86
2018-09-17T23:39:00.514Z,69.70
2018-09-17T23:41:29.566Z,69.30
2018-09-17T23:43:58.618Z,69.97
2018-09-17T23:46:27.641Z,70.24
2018-09-17T23:48:56.936Z,70.23
2018-09-17T23:51:26.222Z,70.26
2018-09-17T23:53:54.990Z,70.28
2018-09-17T23:56:23.769Z,69.58
2018-09-17T23:58:52.837Z,69.51
